Time,TemperatureF,DewpointF,PressureIn,WindDirection,WindDirectionDegrees,WindSpeedMPH,WindSpeedGustMPH,Humidity,HourlyPrecipIn,Conditions,Clouds,dailyrainin,SolarRadiationWatts/m^2,SoftwareType,DateUTC
2013-04-27 00:02:00,44.0,36.0,-100.00,WSW,239,2.0,4.0,72,0.00,,,0.00,0.000000,,2013-04-27 05:02:00,
2013-04-27 00:11:00,41.0,36.0,-100.00,West,263,5.0,6.0,83,0.00,,,0.00,0.000000,,2013-04-27 05:11:00,
2013-04-27 00:42:00,41.0,36.0,-100.00,West,263,5.0,6.0,83,0.00,,,0.00,0.000000,,2013-04-27 05:42:00,
2013-04-27 00:52:00,41.0,36.0,-100.00,West,263,5.0,6.0,83,0.00,,,0.00,0.000000,,2013-04-27 05:52:00,
2013-04-27 01:02:00,41.0,36.0,-100.00,West,263,5.0,6.0,83,0.00,,,0.00,0.000000,,2013-04-27 06:02:00,
2013-04-27 02:11:00,38.0,34.0,-100.00,SSW,194,2.0,4.0,85,-99.99,,,0.00,0.000000,,2013-04-27 07:11:00,
2013-04-27 02:32:00,38.0,34.0,-100.00,SSW,194,2.0,4.0,85,-99.99,,,0.00,0.000000,,2013-04-27 07:32:00,
2013-04-27 02:42:00,38.0,34.0,-100.00,SSW,194,2.0,4.0,85,-99.99,,,0.00,0.000000,,2013-04-27 07:42:00,
2013-04-27 02:52:00,38.0,34.0,-100.00,SSW,194,2.0,4.0,85,-99.99,,,0.00,0.000000,,2013-04-27 07:52:00,
2013-04-27 03:01:00,38.0,34.0,-100.00,SSW,194,2.0,4.0,85,-99.99,,,0.00,0.000000,,2013-04-27 08:01:00,
2013-04-27 03:11:00,37.0,33.0,-100.00,ESE,114,3.0,6.0,85,0.00,,,0.00,0.000000,,2013-04-27 08:11:00,
2013-04-27 03:33:00,37.0,33.0,-100.00,ESE,114,3.0,6.0,85,0.00,,,0.00,0.000000,,2013-04-27 08:33:00,
2013-04-27 03:42:00,37.0,33.0,-100.00,ESE,114,3.0,6.0,85,0.00,,,0.00,0.000000,,2013-04-27 08:42:00,
2013-04-27 03:52:00,37.0,33.0,-100.00,ESE,114,3.0,6.0,85,0.00,,,0.00,0.000000,,2013-04-27 08:52:00,
2013-04-27 04:01:00,37.0,33.0,-100.00,ESE,114,3.0,6.0,85,0.00,,,0.00,0.000000,,2013-04-27 09:01:00,
2013-04-27 04:11:00,38.0,36.0,-100.00,SSE,149,3.0,4.0,91,0.00,,,0.00,0.000000,,2013-04-27 09:11:00,
2013-04-27 04:33:00,38.0,36.0,-100.00,SSE,149,3.0,4.0,91,0.00,,,0.00,0.000000,,2013-04-27 09:33:00,
2013-04-27 04:43:00,38.0,36.0,-100.00,SSE,149,3.0,4.0,91,0.00,,,0.00,0.000000,,2013-04-27 09:43:00,
2013-04-27 04:53:00,38.0,36.0,-100.00,SSE,149,3.0,4.0,91,0.00,,,0.00,0.000000,,2013-04-27 09:53:00,
2013-04-27 05:02:00,38.0,36.0,-100.00,SSE,149,3.0,4.0,91,0.00,,,0.00,0.000000,,2013-04-27 10:02:00,
2013-04-27 05:11:00,39.0,32.0,-100.00,South,186,5.0,7.0,77,0.00,,,0.00,0.000000,,2013-04-27 10:11:00,
2013-04-27 05:33:00,39.0,32.0,-100.00,South,186,5.0,7.0,77,0.00,,,0.00,0.000000,,2013-04-27 10:33:00,
2013-04-27 05:42:00,39.0,32.0,-100.00,South,186,5.0,7.0,77,0.00,,,0.00,0.000000,,2013-04-27 10:42:00,
2013-04-27 05:52:00,39.0,32.0,-100.00,South,186,5.0,7.0,77,0.00,,,0.00,0.000000,,2013-04-27 10:52:00,
2013-04-27 06:02:00,39.0,32.0,-100.00,South,186,5.0,7.0,77,0.00,,,0.00,0.000000,,2013-04-27 11:02:00,
2013-04-27 06:11:00,36.0,33.0,-100.00,SSW,213,2.0,6.0,88,0.00,,,0.00,0.000000,,2013-04-27 11:11:00,
2013-04-27 06:42:00,36.0,33.0,-100.00,SSW,213,2.0,6.0,88,0.00,,,0.00,0.000000,,2013-04-27 11:42:00,
2013-04-27 06:52:00,36.0,33.0,-100.00,SSW,213,2.0,6.0,88,0.00,,,0.00,0.000000,,2013-04-27 11:52:00,
2013-04-27 07:01:00,36.0,33.0,-100.00,SSW,213,2.0,6.0,88,0.00,,,0.00,0.000000,,2013-04-27 12:01:00,
2013-04-27 07:11:00,44.0,33.0,-100.00,WSW,244,5.0,6.0,66,0.00,,,0.00,75.000000,,2013-04-27 12:11:00,
2013-04-27 07:32:00,44.0,33.0,-100.00,WSW,244,5.0,6.0,66,0.00,,,0.00,75.000000,,2013-04-27 12:32:00,
2013-04-27 07:42:00,44.0,33.0,-100.00,WSW,244,5.0,6.0,66,0.00,,,0.00,75.000000,,2013-04-27 12:42:00,
2013-04-27 07:52:00,44.0,33.0,-100.00,WSW,244,5.0,6.0,66,0.00,,,0.00,75.000000,,2013-04-27 12:52:00,
2013-04-27 08:02:00,44.0,33.0,-100.00,WSW,244,5.0,6.0,66,0.00,,,0.00,75.000000,,2013-04-27 13:02:00,
2013-04-27 08:11:00,53.0,36.0,-100.00,SSW,212,5.0,7.0,52,0.00,,,0.00,321.000000,,2013-04-27 13:11:00,
2013-04-27 08:42:00,53.0,36.0,-100.00,SSW,212,5.0,7.0,52,0.00,,,0.00,321.000000,,2013-04-27 13:42:00,
2013-04-27 08:52:00,53.0,36.0,-100.00,SSW,212,5.0,7.0,52,0.00,,,0.00,321.000000,,2013-04-27 13:52:00,
2013-04-27 09:02:00,53.0,36.0,-100.00,SSW,212,5.0,7.0,52,0.00,,,0.00,321.000000,,2013-04-27 14:02:00,
2013-04-27 09:11:00,57.0,35.0,-100.00,SW,234,7.0,11.0,43,0.00,,,0.00,434.000000,,2013-04-27 14:11:00,
2013-04-27 09:42:00,57.0,35.0,-100.00,SW,234,7.0,11.0,43,0.00,,,0.00,434.000000,,2013-04-27 14:42:00,
2013-04-27 09:52:00,57.0,35.0,-100.00,SW,234,7.0,11.0,43,0.00,,,0.00,434.000000,,2013-04-27 14:52:00,
2013-04-27 10:01:00,57.0,35.0,-100.00,SW,234,7.0,11.0,43,0.00,,,0.00,434.000000,,2013-04-27 15:01:00,
2013-04-27 10:11:00,63.0,36.0,-100.00,SW,215,6.0,9.0,36,0.00,,,0.00,748.000000,,2013-04-27 15:11:00,
2013-04-27 10:33:00,63.0,36.0,-100.00,SW,215,6.0,9.0,36,0.00,,,0.00,748.000000,,2013-04-27 15:33:00,
2013-04-27 10:43:00,63.0,36.0,-100.00,SW,215,6.0,9.0,36,0.00,,,0.00,748.000000,,2013-04-27 15:43:00,
2013-04-27 10:53:00,63.0,36.0,-100.00,SW,215,6.0,9.0,36,0.00,,,0.00,748.000000,,2013-04-27 15:53:00,
2013-04-27 11:03:00,63.0,36.0,-100.00,SW,215,6.0,9.0,36,0.00,,,0.00,748.000000,,2013-04-27 16:03:00,
2013-04-27 11:11:00,68.0,33.0,-100.00,SSW,206,8.0,12.0,27,0.00,,,0.00,928.000000,,2013-04-27 16:11:00,
2013-04-27 11:42:00,68.0,33.0,-100.00,SSW,206,8.0,12.0,27,0.00,,,0.00,928.000000,,2013-04-27 16:42:00,
2013-04-27 11:53:00,68.0,33.0,-100.00,SSW,206,8.0,12.0,27,0.00,,,0.00,928.000000,,2013-04-27 16:53:00,
2013-04-27 12:02:00,68.0,33.0,-100.00,SSW,206,8.0,12.0,27,0.00,,,0.00,928.000000,,2013-04-27 17:02:00,
2013-04-27 12:11:00,70.0,30.0,-100.00,South,180,7.0,12.0,23,0.00,,,0.00,1038.000000,,2013-04-27 17:11:00,
2013-04-27 12:32:00,70.0,30.0,-100.00,South,180,7.0,12.0,23,0.00,,,0.00,1038.000000,,2013-04-27 17:32:00,
2013-04-27 12:42:00,70.0,30.0,-100.00,South,180,7.0,12.0,23,0.00,,,0.00,1038.000000,,2013-04-27 17:42:00,
2013-04-27 12:53:00,70.0,30.0,-100.00,South,180,7.0,12.0,23,0.00,,,0.00,1038.000000,,2013-04-27 17:53:00,
2013-04-27 13:02:00,70.0,30.0,-100.00,South,180,7.0,12.0,23,0.00,,,0.00,1038.000000,,2013-04-27 18:02:00,
2013-04-27 13:11:00,72.0,30.0,-100.00,South,183,7.0,15.0,21,0.00,,,0.00,1073.000000,,2013-04-27 18:11:00,
2013-04-27 13:32:00,72.0,30.0,-100.00,South,183,7.0,15.0,21,0.00,,,0.00,1073.000000,,2013-04-27 18:32:00,
2013-04-27 13:42:00,72.0,30.0,-100.00,South,183,7.0,15.0,21,0.00,,,0.00,1073.000000,,2013-04-27 18:42:00,
2013-04-27 13:52:00,72.0,30.0,-100.00,South,183,7.0,15.0,21,0.00,,,0.00,1073.000000,,2013-04-27 18:52:00,
2013-04-27 14:02:00,72.0,30.0,-100.00,South,183,7.0,15.0,21,0.00,,,0.00,1073.000000,,2013-04-27 19:02:00,
2013-04-27 14:11:00,73.0,28.0,-100.00,South,186,8.0,15.0,19,0.00,,,0.00,1040.000000,,2013-04-27 19:11:00,
2013-04-27 14:42:00,73.0,28.0,-100.00,South,186,8.0,15.0,19,0.00,,,0.00,1040.000000,,2013-04-27 19:42:00,
2013-04-27 14:53:00,73.0,28.0,-100.00,South,186,8.0,15.0,19,0.00,,,0.00,1040.000000,,2013-04-27 19:53:00,
2013-04-27 15:02:00,73.0,28.0,-100.00,South,186,8.0,15.0,19,0.00,,,0.00,1040.000000,,2013-04-27 20:02:00,
2013-04-27 15:11:00,74.0,30.0,-100.00,SSE,166,9.0,15.0,20,0.00,,,0.00,963.000000,,2013-04-27 20:11:00,
2013-04-27 15:42:00,74.0,30.0,-100.00,SSE,166,9.0,15.0,20,0.00,,,0.00,963.000000,,2013-04-27 20:42:00,
2013-04-27 15:52:00,74.0,30.0,-100.00,SSE,166,9.0,15.0,20,0.00,,,0.00,963.000000,,2013-04-27 20:52:00,
2013-04-27 16:02:00,74.0,30.0,-100.00,SSE,166,9.0,15.0,20,0.00,,,0.00,963.000000,,2013-04-27 21:02:00,
2013-04-27 16:11:00,74.0,29.0,-100.00,SSE,166,10.0,16.0,19,0.00,,,0.00,817.000000,,2013-04-27 21:11:00,
2013-04-27 16:43:00,74.0,29.0,-100.00,SSE,166,10.0,16.0,19,0.00,,,0.00,817.000000,,2013-04-27 21:43:00,
2013-04-27 16:53:00,74.0,29.0,-100.00,SSE,166,10.0,16.0,19,0.00,,,0.00,817.000000,,2013-04-27 21:53:00,
2013-04-27 17:02:00,74.0,29.0,-100.00,SSE,166,10.0,16.0,19,0.00,,,0.00,817.000000,,2013-04-27 22:02:00,
2013-04-27 17:11:00,74.0,29.0,-100.00,SSE,157,10.0,18.0,19,0.00,,,0.00,626.000000,,2013-04-27 22:11:00,
2013-04-27 17:42:00,74.0,29.0,-100.00,SSE,157,10.0,18.0,19,0.00,,,0.00,626.000000,,2013-04-27 22:42:00,
2013-04-27 17:53:00,74.0,29.0,-100.00,SSE,157,10.0,18.0,19,0.00,,,0.00,626.000000,,2013-04-27 22:53:00,
2013-04-27 18:02:00,74.0,29.0,-100.00,SSE,157,10.0,18.0,19,0.00,,,0.00,626.000000,,2013-04-27 23:02:00,
2013-04-27 18:11:00,73.0,30.0,-100.00,SSE,164,10.0,15.0,20,0.00,,,0.00,390.000000,,2013-04-27 23:11:00,
2013-04-27 18:32:00,73.0,30.0,-100.00,SSE,164,10.0,15.0,20,0.00,,,0.00,390.000000,,2013-04-27 23:32:00,
2013-04-27 18:42:00,73.0,30.0,-100.00,SSE,164,10.0,15.0,20,0.00,,,0.00,390.000000,,2013-04-27 23:42:00,
2013-04-27 18:52:00,73.0,30.0,-100.00,SSE,164,10.0,15.0,20,0.00,,,0.00,390.000000,,2013-04-27 23:52:00,
2013-04-27 19:01:00,73.0,30.0,-100.00,SSE,164,10.0,15.0,20,0.00,,,0.00,390.000000,,2013-04-28 00:01:00,
2013-04-27 20:11:00,63.0,36.0,-100.00,SSE,164,7.0,11.0,37,-99.99,,,0.00,40.000000,,2013-04-28 01:11:00,
2013-04-27 20:32:00,63.0,36.0,-100.00,SSE,164,7.0,11.0,37,-99.99,,,0.00,40.000000,,2013-04-28 01:32:00,
2013-04-27 20:42:00,63.0,36.0,-100.00,SSE,164,7.0,11.0,37,-99.99,,,0.00,40.000000,,2013-04-28 01:42:00,
2013-04-27 20:52:00,63.0,36.0,-100.00,SSE,164,7.0,11.0,37,-99.99,,,0.00,40.000000,,2013-04-28 01:52:00,
2013-04-27 21:02:00,63.0,36.0,-100.00,SSE,164,7.0,11.0,37,-99.99,,,0.00,40.000000,,2013-04-28 02:02:00,
2013-04-27 21:11:00,56.0,34.0,-100.00,SSW,201,3.0,7.0,43,0.00,,,0.00,1.000000,,2013-04-28 02:11:00,
2013-04-27 21:32:00,56.0,34.0,-100.00,SSW,201,3.0,7.0,43,0.00,,,0.00,1.000000,,2013-04-28 02:32:00,
2013-04-27 21:42:00,56.0,34.0,-100.00,SSW,201,3.0,7.0,43,0.00,,,0.00,1.000000,,2013-04-28 02:42:00,
2013-04-27 21:52:00,56.0,34.0,-100.00,SSW,201,3.0,7.0,43,0.00,,,0.00,1.000000,,2013-04-28 02:52:00,
2013-04-27 22:01:00,56.0,34.0,-100.00,SSW,201,3.0,7.0,43,0.00,,,0.00,1.000000,,2013-04-28 03:01:00,
2013-04-27 22:11:00,53.0,37.0,-100.00,SSE,150,5.0,7.0,55,0.00,,,0.00,0.000000,,2013-04-28 03:11:00,
2013-04-27 22:43:00,53.0,37.0,-100.00,SSE,150,5.0,7.0,55,0.00,,,0.00,0.000000,,2013-04-28 03:43:00,
2013-04-27 22:53:00,53.0,37.0,-100.00,SSE,150,5.0,7.0,55,0.00,,,0.00,0.000000,,2013-04-28 03:53:00,
2013-04-27 23:02:00,53.0,37.0,-100.00,SSE,150,5.0,7.0,55,0.00,,,0.00,0.000000,,2013-04-28 04:02:00,
2013-04-27 23:11:00,56.0,45.0,-100.00,SSE,166,10.0,14.0,67,0.00,,,0.00,0.000000,,2013-04-28 04:11:00,
2013-04-27 23:32:00,56.0,45.0,-100.00,SSE,166,10.0,14.0,67,0.00,,,0.00,0.000000,,2013-04-28 04:32:00,
2013-04-27 23:43:00,56.0,45.0,-100.00,SSE,166,10.0,14.0,67,0.00,,,0.00,0.000000,,2013-04-28 04:43:00,
2013-04-27 23:53:00,56.0,45.0,-100.00,SSE,166,10.0,14.0,67,0.00,,,0.00,0.000000,,2013-04-28 04:53:00,